sensor_id;sensor_type;location;lat;lon;timestamp;pressure;altitude;pressure_sealevel;temperature;humidity
15646;BME280;7922;43.622;1.476;2024-03-29T00:00:55;97812.25;;;12.23;67.70
15646;BME280;7922;43.622;1.476;2024-03-29T00:03:21;97891.66;;;12.68;67.88
15646;BME280;7922;43.622;1.476;2024-03-29T00:05:46;97861.94;;;12.53;68.10
15646;BME280;7922;43.622;1.476;2024-03-29T00:08:11;97900.72;;;12.66;68.11
15646;BME280;7922;43.622;1.476;2024-03-29T00:10:37;97916.66;;;12.87;67.63
15646;BME280;7922;43.622;1.476;2024-03-29T00:13:02;97862.03;;;12.52;67.91
15646;BME280;7922;43.622;1.476;2024-03-29T00:15:27;97870.84;;;12.52;67.83
15646;BME280;7922;43.622;1.476;2024-03-29T00:17:53;97808.31;;;12.18;68.19
15646;BME280;7922;43.622;1.476;2024-03-29T00:20:18;97908.25;;;12.61;68.20
15646;BME280;7922;43.622;1.476;2024-03-29T00:22:43;97894.72;;;12.64;67.63
15646;BME280;7922;43.622;1.476;2024-03-29T00:25:09;97889.13;;;12.46;67.92
15646;BME280;7922;43.622;1.476;2024-03-29T00:27:34;97908.59;;;12.67;67.90
15646;BME280;7922;43.622;1.476;2024-03-29T00:29:59;97887.25;;;12.58;67.73
15646;BME280;7922;43.622;1.476;2024-03-29T00:32:25;97915.25;;;12.62;68.16
15646;BME280;7922;43.622;1.476;2024-03-29T00:34:51;97922.47;;;12.60;68.81
15646;BME280;7922;43.622;1.476;2024-03-29T00:37:17;97924.09;;;12.51;69.84
15646;BME280;7922;43.622;1.476;2024-03-29T00:39:43;97853.13;;;12.00;70.30
15646;BME280;7922;43.622;1.476;2024-03-29T00:42:08;97779.25;;;11.52;70.43
15646;BME280;7922;43.622;1.476;2024-03-29T00:44:36;97859.19;;;11.91;70.33
15646;BME280;7922;43.622;1.476;2024-03-29T00:47:02;97915.50;;;12.26;70.44
15646;BME280;7922;43.622;1.476;2024-03-29T00:49:27;97919.56;;;12.42;70.04
15646;BME280;7922;43.622;1.476;2024-03-29T00:51:52;97800.50;;;11.84;70.32
15646;BME280;7922;43.622;1.476;2024-03-29T00:54:18;97869.22;;;12.19;70.18
15646;BME280;7922;43.622;1.476;2024-03-29T00:56:43;97830.94;;;12.01;69.90
15646;BME280;7922;43.622;1.476;2024-03-29T00:59:11;97857.13;;;12.26;69.63
15646;BME280;7922;43.622;1.476;2024-03-29T01:01:36;97812.41;;;11.90;69.98
15646;BME280;7922;43.622;1.476;2024-03-29T01:04:01;97921.59;;;12.49;69.87
15646;BME280;7922;43.622;1.476;2024-03-29T01:06:26;97870.63;;;12.23;70.35
15646;BME280;7922;43.622;1.476;2024-03-29T01:08:52;97876.53;;;12.27;69.76
15646;BME280;7922;43.622;1.476;2024-03-29T01:11:17;97881.72;;;12.28;70.28
15646;BME280;7922;43.622;1.476;2024-03-29T01:13:45;97846.22;;;12.09;70.39
15646;BME280;7922;43.622;1.476;2024-03-29T01:16:10;97866.22;;;12.13;71.10
15646;BME280;7922;43.622;1.476;2024-03-29T01:18:35;97872.69;;;12.20;70.64
15646;BME280;7922;43.622;1.476;2024-03-29T01:21:00;97891.63;;;12.26;70.79
15646;BME280;7922;43.622;1.476;2024-03-29T01:23:26;97796.88;;;11.74;71.10
15646;BME280;7922;43.622;1.476;2024-03-29T01:25:51;97862.81;;;12.22;71.25
15646;BME280;7922;43.622;1.476;2024-03-29T01:28:16;97772.69;;;11.67;70.85
15646;BME280;7922;43.622;1.476;2024-03-29T01:30:42;97858.34;;;12.22;71.39
15646;BME280;7922;43.622;1.476;2024-03-29T01:33:07;97830.72;;;11.93;71.77
15646;BME280;7922;43.622;1.476;2024-03-29T01:35:32;97886.56;;;12.23;71.92
15646;BME280;7922;43.622;1.476;2024-03-29T01:37:58;97872.69;;;12.20;71.99
15646;BME280;7922;43.622;1.476;2024-03-29T01:40:23;97916.53;;;12.46;72.20
15646;BME280;7922;43.622;1.476;2024-03-29T01:42:48;97856.53;;;12.23;72.28
15646;BME280;7922;43.622;1.476;2024-03-29T01:45:13;97857.75;;;12.19;72.55
15646;BME280;7922;43.622;1.476;2024-03-29T01:47:39;97841.91;;;12.28;72.89
15646;BME280;7922;43.622;1.476;2024-03-29T01:50:05;97854.16;;;12.41;72.90
15646;BME280;7922;43.622;1.476;2024-03-29T01:52:30;97789.69;;;11.97;73.50
15646;BME280;7922;43.622;1.476;2024-03-29T01:54:56;97849.97;;;12.27;73.95
15646;BME280;7922;43.622;1.476;2024-03-29T01:57:22;97848.31;;;12.26;74.21
15646;BME280;7922;43.622;1.476;2024-03-29T01:59:48;97901.38;;;12.58;74.40
15646;BME280;7922;43.622;1.476;2024-03-29T02:02:14;97890.41;;;12.51;74.57
15646;BME280;7922;43.622;1.476;2024-03-29T02:04:39;97867.41;;;12.41;74.76
15646;BME280;7922;43.622;1.476;2024-03-29T02:07:05;97889.41;;;12.64;74.77
15646;BME280;7922;43.622;1.476;2024-03-29T02:09:30;97819.91;;;12.17;74.83
15646;BME280;7922;43.622;1.476;2024-03-29T02:11:55;97716.66;;;11.61;74.82
15646;BME280;7922;43.622;1.476;2024-03-29T02:14:21;97779.34;;;11.94;75.33
15646;BME280;7922;43.622;1.476;2024-03-29T02:16:46;97865.34;;;12.44;75.36
15646;BME280;7922;43.622;1.476;2024-03-29T02:19:11;97886.47;;;12.46;75.92
15646;BME280;7922;43.622;1.476;2024-03-29T02:21:41;97878.88;;;12.41;76.06
15646;BME280;7922;43.622;1.476;2024-03-29T02:24:08;97890.41;;;12.51;76.16
15646;BME280;7922;43.622;1.476;2024-03-29T02:26:33;97786.97;;;11.87;76.21
15646;BME280;7922;43.622;1.476;2024-03-29T02:28:59;97781.66;;;11.87;76.53
15646;BME280;7922;43.622;1.476;2024-03-29T02:31:24;97798.16;;;11.91;76.40
15646;BME280;7922;43.622;1.476;2024-03-29T02:33:49;97895.63;;;12.53;76.63
15646;BME280;7922;43.622;1.476;2024-03-29T02:36:15;97944.28;;;12.74;76.72
15646;BME280;7922;43.622;1.476;2024-03-29T02:38:40;97909.78;;;12.42;76.87
15646;BME280;7922;43.622;1.476;2024-03-29T02:41:05;97909.22;;;12.39;76.98
15646;BME280;7922;43.622;1.476;2024-03-29T02:43:31;97960.66;;;12.59;77.41
15646;BME280;7922;43.622;1.476;2024-03-29T02:45:56;97937.53;;;12.49;77.05
15646;BME280;7922;43.622;1.476;2024-03-29T02:48:21;97895.75;;;12.19;77.72
15646;BME280;7922;43.622;1.476;2024-03-29T02:50:46;97930.56;;;12.37;77.89
15646;BME280;7922;43.622;1.476;2024-03-29T02:53:12;97867.03;;;11.92;78.74
15646;BME280;7922;43.622;1.476;2024-03-29T02:55:37;97893.06;;;11.98;79.54
15646;BME280;7922;43.622;1.476;2024-03-29T02:58:02;97937.31;;;12.09;80.31
15646;BME280;7922;43.622;1.476;2024-03-29T03:00:28;97934.66;;;11.98;80.53
15646;BME280;7922;43.622;1.476;2024-03-29T03:02:53;97928.53;;;11.86;80.87
15646;BME280;7922;43.622;1.476;2024-03-29T03:05:18;97820.38;;;11.35;79.85
15646;BME280;7922;43.622;1.476;2024-03-29T03:07:43;97949.00;;;12.07;80.08
15646;BME280;7922;43.622;1.476;2024-03-29T03:10:09;97823.97;;;11.45;79.32
15646;BME280;7922;43.622;1.476;2024-03-29T03:12:34;97935.75;;;12.07;79.75
15646;BME280;7922;43.622;1.476;2024-03-29T03:15:00;97940.47;;;12.03;79.53
15646;BME280;7922;43.622;1.476;2024-03-29T03:17:28;97945.78;;;11.92;79.84
15646;BME280;7922;43.622;1.476;2024-03-29T03:19:54;97948.78;;;11.87;79.56
15646;BME280;7922;43.622;1.476;2024-03-29T03:22:19;97906.59;;;11.73;78.47
15646;BME280;7922;43.622;1.476;2024-03-29T03:24:44;97941.06;;;11.95;78.43
15646;BME280;7922;43.622;1.476;2024-03-29T03:27:10;97784.31;;;11.00;78.23
15646;BME280;7922;43.622;1.476;2024-03-29T03:29:35;97907.94;;;11.67;79.07
15646;BME280;7922;43.622;1.476;2024-03-29T03:32:00;97892.16;;;11.54;79.89
15646;BME280;7922;43.622;1.476;2024-03-29T03:34:26;97901.91;;;11.54;80.03
15646;BME280;7922;43.622;1.476;2024-03-29T03:36:51;97916.00;;;11.54;79.82
15646;BME280;7922;43.622;1.476;2024-03-29T03:39:17;97859.41;;;11.11;80.03
15646;BME280;7922;43.622;1.476;2024-03-29T03:41:42;97951.19;;;11.68;80.52
15646;BME280;7922;43.622;1.476;2024-03-29T03:44:07;97923.50;;;11.49;80.40
15646;BME280;7922;43.622;1.476;2024-03-29T03:46:32;97924.94;;;11.53;80.04
15646;BME280;7922;43.622;1.476;2024-03-29T03:48:58;97914.72;;;11.38;80.73
15646;BME280;7922;43.622;1.476;2024-03-29T03:51:23;97930.72;;;11.36;80.88
15646;BME280;7922;43.622;1.476;2024-03-29T03:53:48;97791.00;;;10.48;80.10
15646;BME280;7922;43.622;1.476;2024-03-29T03:56:14;97909.16;;;11.18;80.76
15646;BME280;7922;43.622;1.476;2024-03-29T03:58:39;97934.81;;;11.29;80.03
15646;BME280;7922;43.622;1.476;2024-03-29T04:01:04;97934.47;;;11.33;80.36
15646;BME280;7922;43.622;1.476;2024-03-29T04:03:30;97834.50;;;10.68;80.66
15646;BME280;7922;43.622;1.476;2024-03-29T04:05:55;97905.66;;;11.06;81.24
15646;BME280;7922;43.622;1.476;2024-03-29T04:08:20;97932.53;;;11.24;81.50
15646;BME280;7922;43.622;1.476;2024-03-29T04:10:46;97816.16;;;10.43;82.44
15646;BME280;7922;43.622;1.476;2024-03-29T04:13:11;97877.34;;;10.73;82.49
15646;BME280;7922;43.622;1.476;2024-03-29T04:15:36;97932.97;;;10.96;83.05
15646;BME280;7922;43.622;1.476;2024-03-29T04:18:02;97949.25;;;10.91;83.68
15646;BME280;7922;43.622;1.476;2024-03-29T04:20:27;97831.31;;;10.17;84.36
15646;BME280;7922;43.622;1.476;2024-03-29T04:22:52;97913.53;;;10.62;85.27
15646;BME280;7922;43.622;1.476;2024-03-29T04:25:17;97900.88;;;10.54;84.65
15646;BME280;7922;43.622;1.476;2024-03-29T04:27:43;97897.88;;;10.58;84.50
15646;BME280;7922;43.622;1.476;2024-03-29T04:30:08;97938.75;;;10.78;84.94
15646;BME280;7922;43.622;1.476;2024-03-29T04:32:34;97816.50;;;10.03;85.85
15646;BME280;7922;43.622;1.476;2024-03-29T04:34:59;97921.06;;;10.44;86.26
15646;BME280;7922;43.622;1.476;2024-03-29T04:37:24;97889.25;;;10.08;86.25
15646;BME280;7922;43.622;1.476;2024-03-29T04:39:49;97930.38;;;10.25;86.43
15646;BME280;7922;43.622;1.476;2024-03-29T04:42:15;97832.22;;;9.69;86.29
15646;BME280;7922;43.622;1.476;2024-03-29T04:44:40;97880.88;;;9.91;86.82
15646;BME280;7922;43.622;1.476;2024-03-29T04:47:06;97945.81;;;10.31;87.09
15646;BME280;7922;43.622;1.476;2024-03-29T04:49:31;97957.38;;;10.42;87.83
15646;BME280;7922;43.622;1.476;2024-03-29T04:51:56;97862.88;;;9.72;87.52
15646;BME280;7922;43.622;1.476;2024-03-29T04:54:22;97925.88;;;10.02;88.16
15646;BME280;7922;43.622;1.476;2024-03-29T04:56:47;97863.03;;;9.57;88.56
15646;BME280;7922;43.622;1.476;2024-03-29T04:59:12;97989.72;;;10.34;88.75
15646;BME280;7922;43.622;1.476;2024-03-29T05:01:38;97969.44;;;10.09;88.91
15646;BME280;7922;43.622;1.476;2024-03-29T05:04:04;97998.75;;;10.31;88.62
15646;BME280;7922;43.622;1.476;2024-03-29T05:06:29;97969.69;;;10.06;90.07
15646;BME280;7922;43.622;1.476;2024-03-29T05:08:54;97995.81;;;10.10;89.75
15646;BME280;7922;43.622;1.476;2024-03-29T05:11:20;98012.09;;;10.17;89.81
15646;BME280;7922;43.622;1.476;2024-03-29T05:13:47;97964.16;;;9.85;90.53
15646;BME280;7922;43.622;1.476;2024-03-29T05:16:12;98019.97;;;10.06;90.16
15646;BME280;7922;43.622;1.476;2024-03-29T05:18:37;98020.97;;;10.16;90.17
15646;BME280;7922;43.622;1.476;2024-03-29T05:21:03;97949.28;;;9.71;90.00
15646;BME280;7922;43.622;1.476;2024-03-29T05:23:28;97866.41;;;9.23;90.27
15646;BME280;7922;43.622;1.476;2024-03-29T05:25:53;97979.91;;;9.86;90.10
15646;BME280;7922;43.622;1.476;2024-03-29T05:28:19;97985.72;;;9.92;90.25
15646;BME280;7922;43.622;1.476;2024-03-29T05:30:44;97946.13;;;9.66;90.76
15646;BME280;7922;43.622;1.476;2024-03-29T05:33:10;97856.50;;;9.13;91.36
15646;BME280;7922;43.622;1.476;2024-03-29T05:35:35;97949.28;;;9.58;90.95
15646;BME280;7922;43.622;1.476;2024-03-29T05:38:00;97988.22;;;9.56;92.23
15646;BME280;7922;43.622;1.476;2024-03-29T05:40:26;98021.81;;;9.67;93.19
15646;BME280;7922;43.622;1.476;2024-03-29T05:42:51;97866.56;;;8.83;93.14
15646;BME280;7922;43.622;1.476;2024-03-29T05:45:28;97984.59;;;9.70;93.26
15646;BME280;7922;43.622;1.476;2024-03-29T05:47:54;97974.34;;;9.65;92.89
15646;BME280;7922;43.622;1.476;2024-03-29T05:50:20;97976.88;;;9.67;92.48
15646;BME280;7922;43.622;1.476;2024-03-29T05:52:45;97912.03;;;9.37;91.96
15646;BME280;7922;43.622;1.476;2024-03-29T05:55:10;97950.38;;;9.56;92.22
15646;BME280;7922;43.622;1.476;2024-03-29T05:57:36;97902.22;;;9.27;92.11
15646;BME280;7922;43.622;1.476;2024-03-29T06:00:01;98006.56;;;9.83;92.24
15646;BME280;7922;43.622;1.476;2024-03-29T06:02:26;97868.66;;;9.03;91.90
15646;BME280;7922;43.622;1.476;2024-03-29T06:04:51;98009.06;;;9.98;91.73
15646;BME280;7922;43.622;1.476;2024-03-29T06:07:17;98041.50;;;10.12;90.98
15646;BME280;7922;43.622;1.476;2024-03-29T06:09:42;98033.25;;;10.17;90.63
15646;BME280;7922;43.622;1.476;2024-03-29T06:12:07;97904.63;;;9.43;91.03
15646;BME280;7922;43.622;1.476;2024-03-29T06:14:33;97989.91;;;9.94;90.87
15646;BME280;7922;43.622;1.476;2024-03-29T06:16:58;97981.81;;;9.84;90.84
15646;BME280;7922;43.622;1.476;2024-03-29T06:19:23;97847.94;;;9.10;90.96
15646;BME280;7922;43.622;1.476;2024-03-29T06:21:48;97911.78;;;9.53;89.95
15646;BME280;7922;43.622;1.476;2024-03-29T06:24:14;98029.88;;;10.28;90.14
15646;BME280;7922;43.622;1.476;2024-03-29T06:26:39;97948.28;;;9.85;89.68
15646;BME280;7922;43.622;1.476;2024-03-29T06:29:04;97993.78;;;10.14;89.44
15646;BME280;7922;43.622;1.476;2024-03-29T06:31:30;98016.72;;;10.26;90.07
15646;BME280;7922;43.622;1.476;2024-03-29T06:33:57;97950.03;;;9.97;88.90
15646;BME280;7922;43.622;1.476;2024-03-29T06:36:22;97992.34;;;10.34;87.88
15646;BME280;7922;43.622;1.476;2024-03-29T06:38:47;98023.19;;;10.70;87.74
15646;BME280;7922;43.622;1.476;2024-03-29T06:41:14;98044.09;;;10.86;87.54
15646;BME280;7922;43.622;1.476;2024-03-29T06:43:42;98003.41;;;10.87;87.49
15646;BME280;7922;43.622;1.476;2024-03-29T06:46:07;98054.44;;;11.24;86.69
15646;BME280;7922;43.622;1.476;2024-03-29T06:48:33;97987.94;;;11.05;84.58
15646;BME280;7922;43.622;1.476;2024-03-29T06:50:58;97991.44;;;11.28;84.50
15646;BME280;7922;43.622;1.476;2024-03-29T06:53:23;98008.94;;;11.75;83.72
15646;BME280;7922;43.622;1.476;2024-03-29T06:55:49;97988.81;;;11.62;81.74
15646;BME280;7922;43.622;1.476;2024-03-29T06:58:14;98024.03;;;11.97;80.69
15646;BME280;7922;43.622;1.476;2024-03-29T07:00:39;98021.97;;;12.12;80.10
15646;BME280;7922;43.622;1.476;2024-03-29T07:03:04;98040.00;;;12.41;80.01
15646;BME280;7922;43.622;1.476;2024-03-29T07:05:30;98045.28;;;12.52;78.79
15646;BME280;7922;43.622;1.476;2024-03-29T07:07:55;98028.41;;;11.98;79.35
15646;BME280;7922;43.622;1.476;2024-03-29T07:10:23;98052.34;;;12.31;79.73
15646;BME280;7922;43.622;1.476;2024-03-29T07:12:48;98001.56;;;12.13;79.15
15646;BME280;7922;43.622;1.476;2024-03-29T07:15:13;98052.00;;;12.35;79.11
15646;BME280;7922;43.622;1.476;2024-03-29T07:17:38;98072.00;;;12.39;79.55
15646;BME280;7922;43.622;1.476;2024-03-29T07:20:04;98013.31;;;12.10;79.26
15646;BME280;7922;43.622;1.476;2024-03-29T07:22:29;98054.75;;;12.34;78.91
15646;BME280;7922;43.622;1.476;2024-03-29T07:24:55;97990.75;;;12.04;78.59
15646;BME280;7922;43.622;1.476;2024-03-29T07:27:20;98013.00;;;12.36;77.97
15646;BME280;7922;43.622;1.476;2024-03-29T07:29:45;98030.81;;;12.45;77.33
15646;BME280;7922;43.622;1.476;2024-03-29T07:32:10;98052.38;;;12.95;76.84
15646;BME280;7922;43.622;1.476;2024-03-29T07:34:36;98024.44;;;12.80;76.49
15646;BME280;7922;43.622;1.476;2024-03-29T07:37:01;98044.31;;;12.85;76.40
15646;BME280;7922;43.622;1.476;2024-03-29T07:39:26;97805.69;;;11.31;77.12
15646;BME280;7922;43.622;1.476;2024-03-29T07:41:52;97968.81;;;12.46;77.13
15646;BME280;7922;43.622;1.476;2024-03-29T07:44:17;97960.84;;;12.67;76.33
15646;BME280;7922;43.622;1.476;2024-03-29T07:46:42;97973.91;;;12.91;75.51
15646;BME280;7922;43.622;1.476;2024-03-29T07:49:08;97970.41;;;13.11;75.19
15646;BME280;7922;43.622;1.476;2024-03-29T07:51:33;97841.97;;;12.59;74.17
15646;BME280;7922;43.622;1.476;2024-03-29T07:53:58;97985.06;;;13.47;73.62
15646;BME280;7922;43.622;1.476;2024-03-29T07:56:24;97898.44;;;13.03;73.46
15646;BME280;7922;43.622;1.476;2024-03-29T07:58:52;97970.78;;;13.28;73.40
15646;BME280;7922;43.622;1.476;2024-03-29T08:01:22;98019.81;;;13.35;74.59
15646;BME280;7922;43.622;1.476;2024-03-29T08:03:50;98010.78;;;13.05;75.36
15646;BME280;7922;43.622;1.476;2024-03-29T08:06:16;98003.00;;;13.13;75.17
15646;BME280;7922;43.622;1.476;2024-03-29T08:08:41;98022.16;;;13.28;75.32
15646;BME280;7922;43.622;1.476;2024-03-29T08:11:06;98051.63;;;13.36;74.75
15646;BME280;7922;43.622;1.476;2024-03-29T08:13:31;98018.91;;;13.24;75.28
15646;BME280;7922;43.622;1.476;2024-03-29T08:15:58;98029.81;;;13.42;75.15
15646;BME280;7922;43.622;1.476;2024-03-29T08:18:23;97991.22;;;13.27;74.97
15646;BME280;7922;43.622;1.476;2024-03-29T08:20:49;98012.66;;;13.26;75.27
15646;BME280;7922;43.622;1.476;2024-03-29T08:23:14;97971.69;;;12.96;74.87
15646;BME280;7922;43.622;1.476;2024-03-29T08:25:39;98048.41;;;13.42;75.25
15646;BME280;7922;43.622;1.476;2024-03-29T08:28:05;98041.56;;;13.40;75.51
15646;BME280;7922;43.622;1.476;2024-03-29T08:30:30;98021.97;;;13.41;74.41
15646;BME280;7922;43.622;1.476;2024-03-29T08:32:55;97983.97;;;13.29;74.20
15646;BME280;7922;43.622;1.476;2024-03-29T08:35:20;97991.00;;;13.19;74.17
15646;BME280;7922;43.622;1.476;2024-03-29T08:37:46;97928.13;;;12.87;73.60
15646;BME280;7922;43.622;1.476;2024-03-29T08:40:11;97960.53;;;13.02;74.58
15646;BME280;7922;43.622;1.476;2024-03-29T08:42:37;97976.28;;;13.36;74.43
15646;BME280;7922;43.622;1.476;2024-03-29T08:45:02;98020.50;;;13.88;72.92
15646;BME280;7922;43.622;1.476;2024-03-29T08:47:28;97976.56;;;14.04;71.67
15646;BME280;7922;43.622;1.476;2024-03-29T08:49:53;97978.34;;;13.93;71.82
15646;BME280;7922;43.622;1.476;2024-03-29T08:52:18;98021.81;;;14.04;72.81
15646;BME280;7922;43.622;1.476;2024-03-29T08:54:43;98046.50;;;14.56;72.06
15646;BME280;7922;43.622;1.476;2024-03-29T08:57:09;98002.63;;;14.69;70.80
15646;BME280;7922;43.622;1.476;2024-03-29T08:59:34;98005.00;;;14.73;70.21
15646;BME280;7922;43.622;1.476;2024-03-29T09:02:06;98028.56;;;15.06;69.69
15646;BME280;7922;43.622;1.476;2024-03-29T09:04:31;97993.94;;;14.67;70.36
15646;BME280;7922;43.622;1.476;2024-03-29T09:07:00;98022.16;;;14.89;70.71
15646;BME280;7922;43.622;1.476;2024-03-29T09:09:26;98028.31;;;15.00;69.82
15646;BME280;7922;43.622;1.476;2024-03-29T09:11:51;97995.44;;;15.19;69.75
15646;BME280;7922;43.622;1.476;2024-03-29T09:14:16;97994.13;;;15.42;69.16
15646;BME280;7922;43.622;1.476;2024-03-29T09:16:41;98009.94;;;15.63;68.42
15646;BME280;7922;43.622;1.476;2024-03-29T09:19:07;98024.69;;;15.57;68.18
15646;BME280;7922;43.622;1.476;2024-03-29T09:21:34;98038.84;;;15.87;66.94
15646;BME280;7922;43.622;1.476;2024-03-29T09:24:00;97968.00;;;15.83;65.85
15646;BME280;7922;43.622;1.476;2024-03-29T09:26:25;98003.16;;;16.33;65.91
15646;BME280;7922;43.622;1.476;2024-03-29T09:28:50;98016.84;;;16.30;65.30
15646;BME280;7922;43.622;1.476;2024-03-29T09:31:16;97956.41;;;15.64;66.61
15646;BME280;7922;43.622;1.476;2024-03-29T09:33:41;97997.31;;;16.66;65.19
15646;BME280;7922;43.622;1.476;2024-03-29T09:36:06;97994.97;;;16.80;63.49
15646;BME280;7922;43.622;1.476;2024-03-29T09:38:32;97975.25;;;16.46;63.27
15646;BME280;7922;43.622;1.476;2024-03-29T09:41:10;97942.53;;;16.70;62.71
15646;BME280;7922;43.622;1.476;2024-03-29T09:43:38;97958.59;;;17.31;61.11
15646;BME280;7922;43.622;1.476;2024-03-29T09:46:04;97933.88;;;16.86;61.64
15646;BME280;7922;43.622;1.476;2024-03-29T09:48:30;97927.34;;;16.88;61.95
15646;BME280;7922;43.622;1.476;2024-03-29T09:50:55;97915.28;;;17.10;61.63
15646;BME280;7922;43.622;1.476;2024-03-29T09:53:23;97997.94;;;17.83;61.08
15646;BME280;7922;43.622;1.476;2024-03-29T09:55:48;97991.97;;;17.45;61.15
15646;BME280;7922;43.622;1.476;2024-03-29T09:58:14;97960.94;;;17.35;61.15
15646;BME280;7922;43.622;1.476;2024-03-29T10:00:39;97970.16;;;17.58;60.62
15646;BME280;7922;43.622;1.476;2024-03-29T10:03:05;97945.88;;;17.60;60.79
15646;BME280;7922;43.622;1.476;2024-03-29T10:05:31;97997.94;;;18.34;59.37
15646;BME280;7922;43.622;1.476;2024-03-29T10:07:59;97994.34;;;18.59;58.31
15646;BME280;7922;43.622;1.476;2024-03-29T10:10:24;97994.56;;;18.90;57.37
15646;BME280;7922;43.622;1.476;2024-03-29T10:12:52;97961.34;;;18.75;56.82
15646;BME280;7922;43.622;1.476;2024-03-29T10:15:17;97992.19;;;18.87;57.45
15646;BME280;7922;43.622;1.476;2024-03-29T10:17:46;97934.28;;;18.27;57.43
15646;BME280;7922;43.622;1.476;2024-03-29T10:20:12;97991.94;;;18.40;57.43
15646;BME280;7922;43.622;1.476;2024-03-29T10:22:44;97942.63;;;18.16;57.61
15646;BME280;7922;43.622;1.476;2024-03-29T10:25:10;97889.22;;;17.72;58.06
15646;BME280;7922;43.622;1.476;2024-03-29T10:27:36;97948.38;;;18.38;57.62
15646;BME280;7922;43.622;1.476;2024-03-29T10:30:02;97927.91;;;18.37;57.55
15646;BME280;7922;43.622;1.476;2024-03-29T10:32:27;97958.16;;;18.88;57.09
15646;BME280;7922;43.622;1.476;2024-03-29T10:34:52;97965.41;;;18.95;56.84
15646;BME280;7922;43.622;1.476;2024-03-29T10:37:19;97969.22;;;19.26;55.43
15646;BME280;7922;43.622;1.476;2024-03-29T10:39:44;97953.72;;;20.08;55.09
15646;BME280;7922;43.622;1.476;2024-03-29T10:42:11;97881.88;;;19.62;53.76
15646;BME280;7922;43.622;1.476;2024-03-29T10:44:37;97955.97;;;19.96;54.34
15646;BME280;7922;43.622;1.476;2024-03-29T10:47:05;97928.75;;;19.99;53.72
15646;BME280;7922;43.622;1.476;2024-03-29T10:49:33;97914.75;;;18.92;54.63
15646;BME280;7922;43.622;1.476;2024-03-29T10:51:59;97932.50;;;19.18;54.35
15646;BME280;7922;43.622;1.476;2024-03-29T10:54:25;97813.56;;;19.17;52.88
15646;BME280;7922;43.622;1.476;2024-03-29T10:56:59;97919.50;;;19.62;53.26
15646;BME280;7922;43.622;1.476;2024-03-29T10:59:34;97948.69;;;19.57;53.89
15646;BME280;7922;43.622;1.476;2024-03-29T11:02:00;97945.28;;;20.19;53.10
15646;BME280;7922;43.622;1.476;2024-03-29T11:04:33;97936.03;;;20.53;51.90
15646;BME280;7922;43.622;1.476;2024-03-29T11:07:09;97917.78;;;20.09;51.84
15646;BME280;7922;43.622;1.476;2024-03-29T11:09:37;97886.84;;;19.82;52.21
15646;BME280;7922;43.622;1.476;2024-03-29T11:12:04;97924.63;;;20.19;52.82
15646;BME280;7922;43.622;1.476;2024-03-29T11:14:40;97903.88;;;19.97;53.20
15646;BME280;7922;43.622;1.476;2024-03-29T11:17:07;97911.78;;;19.99;53.39
15646;BME280;7922;43.622;1.476;2024-03-29T11:19:33;97866.63;;;19.94;51.65
15646;BME280;7922;43.622;1.476;2024-03-29T11:21:58;97929.94;;;20.59;50.66
15646;BME280;7922;43.622;1.476;2024-03-29T11:24:26;97875.03;;;20.68;49.02
15646;BME280;7922;43.622;1.476;2024-03-29T11:26:52;97919.34;;;21.18;48.89
15646;BME280;7922;43.622;1.476;2024-03-29T11:29:21;97910.03;;;20.68;50.34
15646;BME280;7922;43.622;1.476;2024-03-29T11:31:46;97809.81;;;19.74;52.00
15646;BME280;7922;43.622;1.476;2024-03-29T11:34:11;97848.69;;;19.47;53.29
15646;BME280;7922;43.622;1.476;2024-03-29T11:36:39;97854.56;;;19.42;53.06
15646;BME280;7922;43.622;1.476;2024-03-29T11:39:04;97857.75;;;19.85;52.27
15646;BME280;7922;43.622;1.476;2024-03-29T11:41:29;97833.94;;;19.43;53.11
15646;BME280;7922;43.622;1.476;2024-03-29T11:43:55;97871.75;;;20.12;52.87
15646;BME280;7922;43.622;1.476;2024-03-29T11:46:21;97792.59;;;19.52;52.88
15646;BME280;7922;43.622;1.476;2024-03-29T11:48:47;97769.50;;;19.04;53.13
15646;BME280;7922;43.622;1.476;2024-03-29T11:51:13;97846.41;;;20.29;52.44
15646;BME280;7922;43.622;1.476;2024-03-29T11:53:39;97858.63;;;20.63;51.56
15646;BME280;7922;43.622;1.476;2024-03-29T11:56:05;97810.31;;;20.24;51.05
15646;BME280;7922;43.622;1.476;2024-03-29T11:58:32;97870.28;;;20.55;51.60
15646;BME280;7922;43.622;1.476;2024-03-29T12:00:59;97806.13;;;20.67;51.12
15646;BME280;7922;43.622;1.476;2024-03-29T12:03:26;97837.44;;;20.98;50.98
15646;BME280;7922;43.622;1.476;2024-03-29T12:05:53;97844.53;;;21.28;49.61
15646;BME280;7922;43.622;1.476;2024-03-29T12:08:20;97782.38;;;21.30;50.15
15646;BME280;7922;43.622;1.476;2024-03-29T12:10:45;97822.81;;;21.81;48.91
15646;BME280;7922;43.622;1.476;2024-03-29T12:13:11;97820.06;;;21.59;49.54
15646;BME280;7922;43.622;1.476;2024-03-29T12:15:36;97876.09;;;21.79;50.35
15646;BME280;7922;43.622;1.476;2024-03-29T12:18:06;97748.78;;;20.96;50.60
15646;BME280;7922;43.622;1.476;2024-03-29T12:20:32;97854.56;;;21.34;50.80
15646;BME280;7922;43.622;1.476;2024-03-29T12:23:08;97831.44;;;21.55;50.93
15646;BME280;7922;43.622;1.476;2024-03-29T12:25:35;97857.75;;;21.89;51.44
15646;BME280;7922;43.622;1.476;2024-03-29T12:28:01;97823.13;;;21.86;50.48
15646;BME280;7922;43.622;1.476;2024-03-29T12:30:28;97817.19;;;21.76;50.57
15646;BME280;7922;43.622;1.476;2024-03-29T12:33:04;97836.22;;;22.10;49.03
15646;BME280;7922;43.622;1.476;2024-03-29T12:35:29;97828.75;;;22.27;48.68
15646;BME280;7922;43.622;1.476;2024-03-29T12:37:55;97766.78;;;21.55;48.37
15646;BME280;7922;43.622;1.476;2024-03-29T12:40:20;97745.94;;;21.85;49.18
15646;BME280;7922;43.622;1.476;2024-03-29T12:42:45;97855.34;;;22.73;48.65
15646;BME280;7922;43.622;1.476;2024-03-29T12:45:11;97750.94;;;22.52;47.35
15646;BME280;7922;43.622;1.476;2024-03-29T12:47:36;97834.75;;;22.94;45.52
15646;BME280;7922;43.622;1.476;2024-03-29T12:50:02;97816.19;;;22.84;46.87
15646;BME280;7922;43.622;1.476;2024-03-29T12:52:36;97851.09;;;23.14;47.34
15646;BME280;7922;43.622;1.476;2024-03-29T12:55:02;97803.69;;;22.83;47.03
15646;BME280;7922;43.622;1.476;2024-03-29T12:57:27;97819.44;;;22.51;48.34
15646;BME280;7922;43.622;1.476;2024-03-29T12:59:52;97808.28;;;22.61;48.54
15646;BME280;7922;43.622;1.476;2024-03-29T13:02:17;97791.41;;;22.52;48.52
15646;BME280;7922;43.622;1.476;2024-03-29T13:04:43;97805.41;;;22.91;47.91